sensor_id;sensor_type;location;lat;lon;timestamp;pressure;altitude;pressure_sealevel;temperature;humidity
34177;BME280;20450;49.074;9.158;2022-11-20T00:02:23;99349.84;;;4.81;89.70
34177;BME280;20450;49.074;9.158;2022-11-20T00:04:50;99345.69;;;4.79;89.65
34177;BME280;20450;49.074;9.158;2022-11-20T00:07:17;99348.19;;;4.80;89.47
34177;BME280;20450;49.074;9.158;2022-11-20T00:09:44;99351.84;;;4.79;89.20
34177;BME280;20450;49.074;9.158;2022-11-20T00:12:11;99355.19;;;4.81;89.32
34177;BME280;20450;49.074;9.158;2022-11-20T00:14:38;99350.69;;;4.82;89.28
34177;BME280;20450;49.074;9.158;2022-11-20T00:17:05;99344.66;;;4.80;89.12
34177;BME280;20450;49.074;9.158;2022-11-20T00:19:34;99353.16;;;4.83;89.43
34177;BME280;20450;49.074;9.158;2022-11-20T00:22:01;99356.47;;;4.85;89.39
34177;BME280;20450;49.074;9.158;2022-11-20T00:24:28;99347.63;;;4.85;89.13
34177;BME280;20450;49.074;9.158;2022-11-20T00:26:55;99349.84;;;4.81;89.27
34177;BME280;20450;49.074;9.158;2022-11-20T00:29:22;99347.63;;;4.85;89.45
34177;BME280;20450;49.074;9.158;2022-11-20T00:31:50;99346.59;;;4.86;89.75
34177;BME280;20450;49.074;9.158;2022-11-20T00:34:17;99352.69;;;4.80;89.82
34177;BME280;20450;49.074;9.158;2022-11-20T00:36:45;99345.75;;;4.85;89.99
34177;BME280;20450;49.074;9.158;2022-11-20T00:39:13;99346.22;;;4.89;90.26
34177;BME280;20450;49.074;9.158;2022-11-20T00:41:40;99341.72;;;4.89;89.84
34177;BME280;20450;49.074;9.158;2022-11-20T00:44:07;99339.22;;;4.88;89.61
34177;BME280;20450;49.074;9.158;2022-11-20T00:46:34;99334.06;;;4.86;89.47
34177;BME280;20450;49.074;9.158;2022-11-20T00:49:01;99346.22;;;4.89;89.65
34177;BME280;20450;49.074;9.158;2022-11-20T00:51:28;99351.59;;;4.89;89.63
34177;BME280;20450;49.074;9.158;2022-11-20T00:53:57;99349.94;;;4.88;89.43
34177;BME280;20450;49.074;9.158;2022-11-20T00:56:24;99352.59;;;4.88;89.68
34177;BME280;20450;49.074;9.158;2022-11-20T00:58:51;99342.28;;;4.85;89.44
34177;BME280;20450;49.074;9.158;2022-11-20T01:01:20;99357.31;;;4.86;90.11
34177;BME280;20450;49.074;9.158;2022-11-20T01:03:49;99351.22;;;4.92;90.05
34177;BME280;20450;49.074;9.158;2022-11-20T01:06:19;99355.34;;;4.94;89.95
34177;BME280;20450;49.074;9.158;2022-11-20T01:08:50;99353.53;;;4.95;90.05
34177;BME280;20450;49.074;9.158;2022-11-20T01:11:21;99349.63;;;4.97;90.06
34177;BME280;20450;49.074;9.158;2022-11-20T01:13:51;99351.13;;;5.00;89.87
34177;BME280;20450;49.074;9.158;2022-11-20T01:16:21;99357.47;;;4.99;89.53
34177;BME280;20450;49.074;9.158;2022-11-20T01:18:51;99351.75;;;5.02;89.93
34177;BME280;20450;49.074;9.158;2022-11-20T01:21:22;99348.88;;;5.03;89.73
34177;BME280;20450;49.074;9.158;2022-11-20T01:23:51;99362.09;;;5.05;89.69
34177;BME280;20450;49.074;9.158;2022-11-20T01:26:21;99351.84;;;5.08;90.02
34177;BME280;20450;49.074;9.158;2022-11-20T01:28:50;99358.03;;;5.09;89.94
34177;BME280;20450;49.074;9.158;2022-11-20T01:31:19;99355.19;;;5.10;89.82
34177;BME280;20450;49.074;9.158;2022-11-20T01:33:58;99359.69;;;5.10;90.05
34177;BME280;20450;49.074;9.158;2022-11-20T01:36:31;99358.47;;;5.12;89.93
34177;BME280;20450;49.074;9.158;2022-11-20T01:39:03;99355.97;;;5.11;89.65
34177;BME280;20450;49.074;9.158;2022-11-20T01:41:34;99355.25;;;5.02;89.54
34177;BME280;20450;49.074;9.158;2022-11-20T01:44:03;99342.06;;;5.01;89.73
34177;BME280;20450;49.074;9.158;2022-11-20T01:46:31;99347.97;;;4.96;89.46
34177;BME280;20450;49.074;9.158;2022-11-20T01:49:02;99343.09;;;5.00;90.06
34177;BME280;20450;49.074;9.158;2022-11-20T01:51:40;99332.81;;;5.03;90.24
34177;BME280;20450;49.074;9.158;2022-11-20T01:54:18;99331.09;;;4.96;89.66
34177;BME280;20450;49.074;9.158;2022-11-20T01:56:54;99330.09;;;4.68;91.20
34177;BME280;20450;49.074;9.158;2022-11-20T01:59:28;99334.72;;;4.74;91.73
34177;BME280;20450;49.074;9.158;2022-11-20T02:01:56;99331.84;;;4.61;92.47
34177;BME280;20450;49.074;9.158;2022-11-20T02:04:24;99325.59;;;4.68;92.37
34177;BME280;20450;49.074;9.158;2022-11-20T02:06:57;99335.00;;;4.79;92.24
34177;BME280;20450;49.074;9.158;2022-11-20T02:09:27;99335.19;;;4.77;92.48
34177;BME280;20450;49.074;9.158;2022-11-20T02:11:57;99335.91;;;4.86;92.57
34177;BME280;20450;49.074;9.158;2022-11-20T02:14:26;99327.59;;;4.95;92.55
34177;BME280;20450;49.074;9.158;2022-11-20T02:16:54;99327.41;;;4.97;92.27
34177;BME280;20450;49.074;9.158;2022-11-20T02:19:23;99327.03;;;5.00;92.08
34177;BME280;20450;49.074;9.158;2022-11-20T02:22:00;99324.59;;;5.05;92.03
34177;BME280;20450;49.074;9.158;2022-11-20T02:24:32;99325.34;;;5.13;92.09
34177;BME280;20450;49.074;9.158;2022-11-20T02:27:02;99331.13;;;5.17;91.78
34177;BME280;20450;49.074;9.158;2022-11-20T02:29:38;99330.56;;;5.21;91.82
34177;BME280;20450;49.074;9.158;2022-11-20T02:32:18;99326.31;;;5.27;91.71
34177;BME280;20450;49.074;9.158;2022-11-20T02:34:46;99335.00;;;5.29;91.61
34177;BME280;20450;49.074;9.158;2022-11-20T02:37:14;99328.03;;;5.13;92.24
34177;BME280;20450;49.074;9.158;2022-11-20T02:39:44;99330.16;;;5.03;92.65
34177;BME280;20450;49.074;9.158;2022-11-20T02:42:14;99329.53;;;4.87;93.99
34177;BME280;20450;49.074;9.158;2022-11-20T02:44:42;99324.06;;;4.95;94.13
34177;BME280;20450;49.074;9.158;2022-11-20T02:47:09;99328.31;;;5.04;93.95
34177;BME280;20450;49.074;9.158;2022-11-20T02:49:36;99323.81;;;5.04;94.24
34177;BME280;20450;49.074;9.158;2022-11-20T02:52:03;99317.75;;;5.17;94.20
34177;BME280;20450;49.074;9.158;2022-11-20T02:54:30;99317.19;;;5.21;93.85
34177;BME280;20450;49.074;9.158;2022-11-20T02:56:59;99315.34;;;5.22;94.13
34177;BME280;20450;49.074;9.158;2022-11-20T02:59:26;99310.19;;;5.20;94.30
34177;BME280;20450;49.074;9.158;2022-11-20T03:01:53;99314.66;;;5.34;94.15
34177;BME280;20450;49.074;9.158;2022-11-20T03:04:20;99318.81;;;5.37;93.76
34177;BME280;20450;49.074;9.158;2022-11-20T03:06:46;99319.06;;;5.42;93.83
34177;BME280;20450;49.074;9.158;2022-11-20T03:09:13;99310.91;;;5.50;94.12
34177;BME280;20450;49.074;9.158;2022-11-20T03:11:40;99302.13;;;5.56;93.58
34177;BME280;20450;49.074;9.158;2022-11-20T03:14:08;99302.56;;;5.59;93.77
34177;BME280;20450;49.074;9.158;2022-11-20T03:16:35;99300.13;;;5.64;93.32
34177;BME280;20450;49.074;9.158;2022-11-20T03:19:02;99295.41;;;5.66;93.21
34177;BME280;20450;49.074;9.158;2022-11-20T03:21:29;99298.91;;;5.67;93.27
34177;BME280;20450;49.074;9.158;2022-11-20T03:23:56;99300.59;;;5.68;93.62
34177;BME280;20450;49.074;9.158;2022-11-20T03:26:24;99294.88;;;5.77;93.72
34177;BME280;20450;49.074;9.158;2022-11-20T03:28:55;99294.16;;;5.83;93.48
34177;BME280;20450;49.074;9.158;2022-11-20T03:31:27;99286.75;;;5.85;93.48
34177;BME280;20450;49.074;9.158;2022-11-20T03:34:03;99296.81;;;5.83;93.49
34177;BME280;20450;49.074;9.158;2022-11-20T03:36:34;99282.53;;;5.76;93.82
34177;BME280;20450;49.074;9.158;2022-11-20T03:39:04;99286.31;;;5.82;93.84
34177;BME280;20450;49.074;9.158;2022-11-20T03:41:36;99290.69;;;5.89;93.30
34177;BME280;20450;49.074;9.158;2022-11-20T03:44:07;99290.13;;;5.94;93.85
34177;BME280;20450;49.074;9.158;2022-11-20T03:46:37;99288.16;;;6.03;92.98
34177;BME280;20450;49.074;9.158;2022-11-20T03:49:05;99291.69;;;6.10;92.66
34177;BME280;20450;49.074;9.158;2022-11-20T03:51:34;99286.13;;;6.11;92.48
34177;BME280;20450;49.074;9.158;2022-11-20T03:54:05;99284.91;;;6.14;91.80
34177;BME280;20450;49.074;9.158;2022-11-20T03:56:35;99282.69;;;6.17;92.15
34177;BME280;20450;49.074;9.158;2022-11-20T03:59:04;99286.34;;;6.16;92.11
34177;BME280;20450;49.074;9.158;2022-11-20T04:01:33;99282.69;;;6.17;91.86
34177;BME280;20450;49.074;9.158;2022-11-20T04:04:03;99289.94;;;6.23;91.83
34177;BME280;20450;49.074;9.158;2022-11-20T04:06:35;99284.56;;;6.23;91.56
34177;BME280;20450;49.074;9.158;2022-11-20T04:09:03;99285.84;;;6.27;91.33
34177;BME280;20450;49.074;9.158;2022-11-20T04:11:34;99282.97;;;6.29;90.72
34177;BME280;20450;49.074;9.158;2022-11-20T04:14:04;99291.66;;;6.31;91.36
34177;BME280;20450;49.074;9.158;2022-11-20T04:16:35;99283.78;;;6.29;90.80
34177;BME280;20450;49.074;9.158;2022-11-20T04:19:05;99280.53;;;6.34;90.22
34177;BME280;20450;49.074;9.158;2022-11-20T04:21:36;99277.84;;;6.34;90.36
34177;BME280;20450;49.074;9.158;2022-11-20T04:24:03;99280.53;;;6.34;90.70
34177;BME280;20450;49.074;9.158;2022-11-20T04:26:31;99279.28;;;6.36;90.01
34177;BME280;20450;49.074;9.158;2022-11-20T04:28:58;99276.34;;;6.31;90.59
34177;BME280;20450;49.074;9.158;2022-11-20T04:31:28;99273.88;;;6.30;90.67
34177;BME280;20450;49.074;9.158;2022-11-20T04:34:00;99273.84;;;6.23;90.56
34177;BME280;20450;49.074;9.158;2022-11-20T04:36:29;99263.94;;;6.24;90.21
34177;BME280;20450;49.074;9.158;2022-11-20T04:38:58;99274.84;;;6.22;90.36
34177;BME280;20450;49.074;9.158;2022-11-20T04:41:31;99277.53;;;6.22;90.19
34177;BME280;20450;49.074;9.158;2022-11-20T04:44:02;99275.88;;;6.21;90.72
34177;BME280;20450;49.074;9.158;2022-11-20T04:46:31;99269.06;;;6.19;91.21
34177;BME280;20450;49.074;9.158;2022-11-20T04:48:59;99274.81;;;6.16;91.28
34177;BME280;20450;49.074;9.158;2022-11-20T04:51:28;99273.16;;;6.15;91.09
34177;BME280;20450;49.074;9.158;2022-11-20T04:53:56;99271.13;;;6.17;90.93
34177;BME280;20450;49.074;9.158;2022-11-20T04:56:23;99263.91;;;6.17;90.72
34177;BME280;20450;49.074;9.158;2022-11-20T04:58:50;99260.06;;;6.26;90.04
34177;BME280;20450;49.074;9.158;2022-11-20T05:01:19;99266.88;;;6.29;90.18
34177;BME280;20450;49.074;9.158;2022-11-20T05:03:48;99252.03;;;6.33;90.99
34177;BME280;20450;49.074;9.158;2022-11-20T05:06:19;99254.94;;;6.38;90.17
34177;BME280;20450;49.074;9.158;2022-11-20T05:08:49;99253.72;;;6.40;90.08
34177;BME280;20450;49.074;9.158;2022-11-20T05:11:19;99257.69;;;6.44;90.10
34177;BME280;20450;49.074;9.158;2022-11-20T05:13:48;99254.44;;;6.55;89.46
34177;BME280;20450;49.074;9.158;2022-11-20T05:16:17;99256.72;;;6.58;89.42
34177;BME280;20450;49.074;9.158;2022-11-20T05:18:46;99258.41;;;6.66;89.81
34177;BME280;20450;49.074;9.158;2022-11-20T05:21:14;99275.34;;;6.73;88.79
34177;BME280;20450;49.074;9.158;2022-11-20T05:23:43;99264.03;;;6.77;88.83
34177;BME280;20450;49.074;9.158;2022-11-20T05:26:14;99263.03;;;6.85;89.00
34177;BME280;20450;49.074;9.158;2022-11-20T05:28:43;99262.44;;;6.89;88.71
34177;BME280;20450;49.074;9.158;2022-11-20T05:31:12;99262.25;;;6.97;88.47
34177;BME280;20450;49.074;9.158;2022-11-20T05:33:42;99269.50;;;7.03;86.96
34177;BME280;20450;49.074;9.158;2022-11-20T05:36:12;99260.22;;;7.06;87.54
34177;BME280;20450;49.074;9.158;2022-11-20T05:38:40;99266.84;;;7.10;87.39
34177;BME280;20450;49.074;9.158;2022-11-20T05:41:10;99265.00;;;7.17;87.31
34177;BME280;20450;49.074;9.158;2022-11-20T05:43:41;99273.69;;;7.19;87.46
34177;BME280;20450;49.074;9.158;2022-11-20T05:46:12;99268.75;;;7.22;87.38
34177;BME280;20450;49.074;9.158;2022-11-20T05:48:42;99259.84;;;7.22;85.91
34177;BME280;20450;49.074;9.158;2022-11-20T05:51:13;99252.41;;;7.24;86.47
34177;BME280;20450;49.074;9.158;2022-11-20T05:53:42;99265.84;;;7.24;87.34
34177;BME280;20450;49.074;9.158;2022-11-20T05:56:18;99256.94;;;7.23;86.57
34177;BME280;20450;49.074;9.158;2022-11-20T05:58:46;99256.56;;;7.26;86.43
34177;BME280;20450;49.074;9.158;2022-11-20T06:01:16;99261.91;;;7.26;85.73
34177;BME280;20450;49.074;9.158;2022-11-20T06:03:45;99255.34;;;7.29;86.00
34177;BME280;20450;49.074;9.158;2022-11-20T06:06:13;99257.41;;;7.33;86.11
34177;BME280;20450;49.074;9.158;2022-11-20T06:08:40;99253.69;;;7.34;85.69
34177;BME280;20450;49.074;9.158;2022-11-20T06:11:10;99253.25;;;7.31;86.00
34177;BME280;20450;49.074;9.158;2022-11-20T06:13:39;99249.97;;;7.35;85.63
34177;BME280;20450;49.074;9.158;2022-11-20T06:16:09;99252.66;;;7.35;85.06
34177;BME280;20450;49.074;9.158;2022-11-20T06:18:37;99249.56;;;7.38;85.29
34177;BME280;20450;49.074;9.158;2022-11-20T06:21:06;99252.66;;;7.42;84.51
34177;BME280;20450;49.074;9.158;2022-11-20T06:23:36;99244.19;;;7.45;84.73
34177;BME280;20450;49.074;9.158;2022-11-20T06:26:04;99254.13;;;7.44;85.06
34177;BME280;20450;49.074;9.158;2022-11-20T06:28:33;99254.94;;;7.51;84.80
34177;BME280;20450;49.074;9.158;2022-11-20T06:31:01;99251.44;;;7.51;85.13
34177;BME280;20450;49.074;9.158;2022-11-20T06:33:30;99262.78;;;7.53;85.12
34177;BME280;20450;49.074;9.158;2022-11-20T06:35:57;99258.69;;;7.63;85.14
34177;BME280;20450;49.074;9.158;2022-11-20T06:38:27;99254.97;;;7.58;85.17
34177;BME280;20450;49.074;9.158;2022-11-20T06:40:55;99252.50;;;7.63;85.36
34177;BME280;20450;49.074;9.158;2022-11-20T06:43:23;99255.38;;;7.61;85.62
34177;BME280;20450;49.074;9.158;2022-11-20T06:45:52;99255.16;;;7.56;84.84
34177;BME280;20450;49.074;9.158;2022-11-20T06:48:21;99262.38;;;7.56;85.58
34177;BME280;20450;49.074;9.158;2022-11-20T06:50:48;99261.78;;;7.54;86.09
34177;BME280;20450;49.074;9.158;2022-11-20T06:53:15;99269.66;;;7.55;85.56
34177;BME280;20450;49.074;9.158;2022-11-20T06:55:43;99275.63;;;7.57;85.54
34177;BME280;20450;49.074;9.158;2022-11-20T06:58:10;99274.63;;;7.58;85.09
34177;BME280;20450;49.074;9.158;2022-11-20T07:00:37;99275.84;;;7.62;86.52
34177;BME280;20450;49.074;9.158;2022-11-20T07:03:04;99288.69;;;7.67;86.99
34177;BME280;20450;49.074;9.158;2022-11-20T07:05:34;99289.91;;;7.64;86.90
34177;BME280;20450;49.074;9.158;2022-11-20T07:08:01;99280.41;;;7.55;87.27
34177;BME280;20450;49.074;9.158;2022-11-20T07:10:29;99294.63;;;7.56;87.20
34177;BME280;20450;49.074;9.158;2022-11-20T07:12:56;99288.66;;;7.54;87.56
34177;BME280;20450;49.074;9.158;2022-11-20T07:15:25;99291.31;;;7.47;88.03
34177;BME280;20450;49.074;9.158;2022-11-20T07:17:52;99289.25;;;7.43;88.82
34177;BME280;20450;49.074;9.158;2022-11-20T07:20:19;99289.44;;;7.41;88.60
34177;BME280;20450;49.074;9.158;2022-11-20T07:22:53;99292.13;;;7.41;88.53
34177;BME280;20450;49.074;9.158;2022-11-20T07:25:20;99288.84;;;7.39;88.12
34177;BME280;20450;49.074;9.158;2022-11-20T07:27:47;99289.66;;;7.40;88.32
34177;BME280;20450;49.074;9.158;2022-11-20T07:30:15;99300.00;;;7.43;87.87
34177;BME280;20450;49.074;9.158;2022-11-20T07:32:42;99292.75;;;7.37;87.51
34177;BME280;20450;49.074;9.158;2022-11-20T07:35:13;99300.00;;;7.36;88.15
34177;BME280;20450;49.074;9.158;2022-11-20T07:37:41;99306.59;;;7.40;88.14
34177;BME280;20450;49.074;9.158;2022-11-20T07:40:11;99303.94;;;7.40;87.94
34177;BME280;20450;49.074;9.158;2022-11-20T07:42:38;99302.88;;;7.41;87.42
34177;BME280;20450;49.074;9.158;2022-11-20T07:45:06;99301.25;;;7.40;87.91
34177;BME280;20450;49.074;9.158;2022-11-20T07:47:35;99296.06;;;7.39;88.03
34177;BME280;20450;49.074;9.158;2022-11-20T07:50:02;99291.31;;;7.41;88.05
34177;BME280;20450;49.074;9.158;2022-11-20T07:52:30;99297.09;;;7.38;87.41
34177;BME280;20450;49.074;9.158;2022-11-20T07:54:57;99298.16;;;7.43;88.28
34177;BME280;20450;49.074;9.158;2022-11-20T07:57:25;99293.16;;;7.47;87.28
34177;BME280;20450;49.074;9.158;2022-11-20T07:59:54;99293.81;;;7.49;87.62
34177;BME280;20450;49.074;9.158;2022-11-20T08:02:21;99305.00;;;7.52;88.18
34177;BME280;20450;49.074;9.158;2022-11-20T08:04:48;99301.22;;;7.47;87.90
34177;BME280;20450;49.074;9.158;2022-11-20T08:07:15;99305.59;;;7.54;87.56
34177;BME280;20450;49.074;9.158;2022-11-20T08:09:43;99310.75;;;7.56;86.93
34177;BME280;20450;49.074;9.158;2022-11-20T08:12:16;99304.78;;;7.60;87.57
34177;BME280;20450;49.074;9.158;2022-11-20T08:14:46;99317.00;;;7.63;88.54
34177;BME280;20450;49.074;9.158;2022-11-20T08:17:14;99310.78;;;7.62;88.49
34177;BME280;20450;49.074;9.158;2022-11-20T08:19:41;99314.13;;;7.64;88.58
34177;BME280;20450;49.074;9.158;2022-11-20T08:22:38;99321.53;;;7.62;89.16
34177;BME280;20450;49.074;9.158;2022-11-20T08:25:13;99326.06;;;7.62;89.66
34177;BME280;20450;49.074;9.158;2022-11-20T08:27:40;99323.78;;;7.59;89.56
34177;BME280;20450;49.074;9.158;2022-11-20T08:30:10;99320.28;;;7.52;90.43
34177;BME280;20450;49.074;9.158;2022-11-20T08:32:38;99321.50;;;7.43;90.47
34177;BME280;20450;49.074;9.158;2022-11-20T08:35:05;99326.03;;;7.36;90.71
34177;BME280;20450;49.074;9.158;2022-11-20T08:37:32;99330.56;;;7.35;90.35
34177;BME280;20450;49.074;9.158;2022-11-20T08:39:59;99326.63;;;7.31;90.94
34177;BME280;20450;49.074;9.158;2022-11-20T08:42:26;99327.88;;;7.35;91.41
34177;BME280;20450;49.074;9.158;2022-11-20T08:44:55;99323.97;;;7.44;90.71
34177;BME280;20450;49.074;9.158;2022-11-20T08:47:23;99332.28;;;7.49;91.48
34177;BME280;20450;49.074;9.158;2022-11-20T08:49:50;99331.66;;;7.54;90.99
34177;BME280;20450;49.074;9.158;2022-11-20T08:52:17;99336.84;;;7.55;90.60
34177;BME280;20450;49.074;9.158;2022-11-20T08:54:44;99333.53;;;7.60;90.64
34177;BME280;20450;49.074;9.158;2022-11-20T08:57:11;99349.06;;;7.64;90.59
34177;BME280;20450;49.074;9.158;2022-11-20T08:59:38;99342.22;;;7.68;90.04
34177;BME280;20450;49.074;9.158;2022-11-20T09:02:26;99355.28;;;7.71;90.03
34177;BME280;20450;49.074;9.158;2022-11-20T09:04:53;99362.72;;;7.76;90.82
34177;BME280;20450;49.074;9.158;2022-11-20T09:07:20;99350.53;;;7.73;91.03
34177;BME280;20450;49.074;9.158;2022-11-20T09:09:47;99336.00;;;7.68;91.05
34177;BME280;20450;49.074;9.158;2022-11-20T09:12:34;99330.81;;;7.53;90.54
34177;BME280;20450;49.074;9.158;2022-11-20T09:15:01;99329.78;;;7.48;90.60
34177;BME280;20450;49.074;9.158;2022-11-20T09:17:30;99339.69;;;7.47;91.31
34177;BME280;20450;49.074;9.158;2022-11-20T09:19:56;99334.13;;;7.49;91.03
34177;BME280;20450;49.074;9.158;2022-11-20T09:22:23;99335.34;;;7.53;90.80
34177;BME280;20450;49.074;9.158;2022-11-20T09:24:50;99336.22;;;7.60;92.02
34177;BME280;20450;49.074;9.158;2022-11-20T09:27:17;99335.22;;;7.67;91.00
34177;BME280;20450;49.074;9.158;2022-11-20T09:29:44;99341.63;;;7.73;90.80
34177;BME280;20450;49.074;9.158;2022-11-20T09:32:11;99342.25;;;7.81;91.68
34177;BME280;20450;49.074;9.158;2022-11-20T09:34:39;99339.78;;;7.86;90.99
34177;BME280;20450;49.074;9.158;2022-11-20T09:37:06;99347.63;;;7.94;91.29
34177;BME280;20450;49.074;9.158;2022-11-20T09:39:34;99350.75;;;7.98;91.08
34177;BME280;20450;49.074;9.158;2022-11-20T09:42:11;99357.78;;;7.99;90.25
34177;BME280;20450;49.074;9.158;2022-11-20T09:44:58;99353.88;;;8.01;90.31
34177;BME280;20450;49.074;9.158;2022-11-20T09:47:45;99347.44;;;8.02;90.02
34177;BME280;20450;49.074;9.158;2022-11-20T09:50:31;99345.16;;;8.13;89.60
34177;BME280;20450;49.074;9.158;2022-11-20T09:53:12;99353.31;;;8.26;90.08
34177;BME280;20450;49.074;9.158;2022-11-20T09:55:47;99352.25;;;8.40;90.35
34177;BME280;20450;49.074;9.158;2022-11-20T09:58:24;99353.06;;;8.47;89.86
34177;BME280;20450;49.074;9.158;2022-11-20T10:01:08;99339.59;;;8.47;88.77
34177;BME280;20450;49.074;9.158;2022-11-20T10:03:49;99337.34;;;8.57;88.00
34177;BME280;20450;49.074;9.158;2022-11-20T10:06:29;99337.72;;;8.60;87.37
34177;BME280;20450;49.074;9.158;2022-11-20T10:09:18;99345.38;;;8.63;86.88
34177;BME280;20450;49.074;9.158;2022-11-20T10:12:05;99342.69;;;8.70;87.12
34177;BME280;20450;49.074;9.158;2022-11-20T10:14:54;99341.47;;;8.66;86.66
34177;BME280;20450;49.074;9.158;2022-11-20T10:17:55;99346.19;;;8.77;86.54
34177;BME280;20450;49.074;9.158;2022-11-20T10:20:43;99340.22;;;8.75;85.68
34177;BME280;20450;49.074;9.158;2022-11-20T10:23:41;99345.78;;;8.80;86.11
34177;BME280;20450;49.074;9.158;2022-11-20T10:26:31;99344.72;;;8.87;85.75
34177;BME280;20450;49.074;9.158;2022-11-20T10:29:10;99342.03;;;8.87;84.64
34177;BME280;20450;49.074;9.158;2022-11-20T10:31:41;99348.47;;;8.80;84.32
34177;BME280;20450;49.074;9.158;2022-11-20T10:34:20;99349.09;;;8.82;83.47
34177;BME280;20450;49.074;9.158;2022-11-20T10:36:55;99352.19;;;8.85;83.52
34177;BME280;20450;49.074;9.158;2022-11-20T10:39:35;99347.41;;;8.94;83.58
34177;BME280;20450;49.074;9.158;2022-11-20T10:42:17;99350.91;;;9.01;85.65
34177;BME280;20450;49.074;9.158;2022-11-20T10:44:53;99353.81;;;8.99;83.32
34177;BME280;20450;49.074;9.158;2022-11-20T10:47:37;99341.34;;;9.05;84.27
34177;BME280;20450;49.074;9.158;2022-11-20T10:50:08;99343.88;;;9.00;83.72
34177;BME280;20450;49.074;9.158;2022-11-20T10:52:52;99333.34;;;8.85;84.00
34177;BME280;20450;49.074;9.158;2022-11-20T10:55:35;99341.84;;;8.82;83.74
34177;BME280;20450;49.074;9.158;2022-11-20T10:58:13;99342.06;;;8.81;84.59
34177;BME280;20450;49.074;9.158;2022-11-20T11:00:47;99345.78;;;8.80;84.63
34177;BME280;20450;49.074;9.158;2022-11-20T11:03:22;99347.25;;;8.76;83.60
34177;BME280;20450;49.074;9.158;2022-11-20T11:05:55;99339.78;;;8.78;83.74
34177;BME280;20450;49.074;9.158;2022-11-20T11:08:35;99347.44;;;8.81;83.73
34177;BME280;20450;49.074;9.158;2022-11-20T11:11:18;99344.53;;;8.76;83.63
34177;BME280;20450;49.074;9.158;2022-11-20T11:13:49;99337.31;;;8.70;82.95
34177;BME280;20450;49.074;9.158;2022-11-20T11:16:20;99331.09;;;8.69;83.07
34177;BME280;20450;49.074;9.158;2022-11-20T11:18:48;99329.84;;;8.72;83.62
34177;BME280;20450;49.074;9.158;2022-11-20T11:21:22;99318.66;;;8.75;83.41
34177;BME280;20450;49.074;9.158;2022-11-20T11:24:02;99316.59;;;8.70;83.40
34177;BME280;20450;49.074;9.158;2022-11-20T11:26:53;99315.34;;;8.73;83.52
34177;BME280;20450;49.074;9.158;2022-11-20T11:29:23;99313.66;;;8.78;83.83
34177;BME280;20450;49.074;9.158;2022-11-20T11:31:51;99311.97;;;8.90;84.23
34177;BME280;20450;49.074;9.158;2022-11-20T11:34:17;99299.28;;;8.97;83.16
34177;BME280;20450;49.074;9.158;2022-11-20T11:36:54;99311.75;;;8.98;82.69
34177;BME280;20450;49.074;9.158;2022-11-20T11:39:25;99305.72;;;9.03;81.69
34177;BME280;20450;49.074;9.158;2022-11-20T11:41:55;99306.00;;;9.32;80.72
34177;BME280;20450;49.074;9.158;2022-11-20T11:44:26;99293.34;;;11.52;73.90
34177;BME280;20450;49.074;9.158;2022-11-20T11:46:57;99281.66;;;12.34;70.56
34177;BME280;20450;49.074;9.158;2022-11-20T11:49:25;99279.97;;;14.48;64.44
34177;BME280;20450;49.074;9.158;2022-11-20T11:52:04;99272.81;;;13.36;65.44
34177;BME280;20450;49.074;9.158;2022-11-20T11:54:44;99268.22;;;12.28;67.84
34177;BME280;20450;49.074;9.158;2022-11-20T11:57:23;99276.28;;;11.81;69.74
34177;BME280;20450;49.074;9.158;2022-11-20T12:00:01;99275.09;;;11.18;71.25
34177;BME280;20450;49.074;9.158;2022-11-20T12:02:55;99276.44;;;10.73;72.31
34177;BME280;20450;49.074;9.158;2022-11-20T12:05:35;99279.13;;;10.55;74.33
34177;BME280;20450;49.074;9.158;2022-11-20T12:08:14;99273.69;;;10.37;74.20
34177;BME280;20450;49.074;9.158;2022-11-20T12:10:48;99270.25;;;10.30;73.91
34177;BME280;20450;49.074;9.158;2022-11-20T12:13:35;99265.88;;;10.11;74.36
34177;BME280;20450;49.074;9.158;2022-11-20T12:16:13;99267.16;;;10.02;74.42
34177;BME280;20450;49.074;9.158;2022-11-20T12:18:46;99275.28;;;9.95;75.60
34177;BME280;20450;49.074;9.158;2022-11-20T12:21:24;99274.41;;;10.01;76.26
34177;BME280;20450;49.074;9.158;2022-11-20T12:24:10;99268.13;;;10.14;75.58
34177;BME280;20450;49.074;9.158;2022-11-20T12:27:05;99259.31;;;10.25;74.67
34177;BME280;20450;49.074;9.158;2022-11-20T12:29:57;99267.66;;;10.78;72.18
34177;BME280;20450;49.074;9.158;2022-11-20T12:35:48;99261.34;;;11.20;73.16
34177;BME280;20450;49.074;9.158;2022-11-20T12:38:45;99260.44;;;11.08;70.19
34177;BME280;20450;49.074;9.158;2022-11-20T12:41:40;99267.66;;;10.96;70.72
34177;BME280;20450;49.074;9.158;2022-11-20T12:44:21;99260.28;;;11.03;70.38
34177;BME280;20450;49.074;9.158;2022-11-20T12:47:12;99262.88;;;10.80;70.73
34177;BME280;20450;49.074;9.158;2022-11-20T12:49:52;99260.69;;;10.70;69.82
34177;BME280;20450;49.074;9.158;2022-11-20T12:52:38;99259.94;;;10.81;69.43
34177;BME280;20450;49.074;9.158;2022-11-20T12:55:23;99258.59;;;10.90;69.19
34177;BME280;20450;49.074;9.158;2022-11-20T12:58:04;99258.38;;;10.92;67.59
34177;BME280;20450;49.074;9.158;2022-11-20T13:00:47;99259.34;;;10.97;67.95
34177;BME280;20450;49.074;9.158;2022-11-20T13:03:36;99260.97;;;10.98;67.40
34177;BME280;20450;49.074;9.158;2022-11-20T13:06:15;99255.66;;;11.10;68.49
34177;BME280;20450;49.074;9.158;2022-11-20T13:08:49;99256.03;;;10.95;68.51
34177;BME280;20450;49.074;9.158;2022-11-20T13:11:24;99252.75;;;10.93;68.12
34177;BME280;20450;49.074;9.158;2022-11-20T13:14:19;99247.34;;;10.93;70.54
34177;BME280;20450;49.074;9.158;2022-11-20T13:17:00;99254.78;;;10.98;67.60
34177;BME280;20450;49.074;9.158;2022-11-20T13:19:35;99242.06;;;10.98;67.29
34177;BME280;20450;49.074;9.158;2022-11-20T13:22:02;99240.19;;;10.99;66.72
34177;BME280;20450;49.074;9.158;2022-11-20T13:24:37;99245.00;;;10.97;67.44
34177;BME280;20450;49.074;9.158;2022-11-20T13:27:17;99235.00;;;10.97;66.57
34177;BME280;20450;49.074;9.158;2022-11-20T13:29:47;99230.72;;;11.08;65.98
34177;BME280;20450;49.074;9.158;2022-11-20T13:32:27;99233.94;;;10.98;66.52
34177;BME280;20450;49.074;9.158;2022-11-20T13:34:57;99230.50;;;11.09;66.77
34177;BME280;20450;49.074;9.158;2022-11-20T13:37:29;99223.44;;;11.08;66.32
34177;BME280;20450;49.074;9.158;2022-11-20T13:40:21;99218.13;;;10.84;67.20